Time;durP1;ratioP1;P1;durP2;ratioP2;P2;SDS_P1;SDS_P2;PMS_P1;PMS_P2;Temp;Humidity;BMP_temperature;BMP_pressure;BME280_temperature;BME280_humidity;BME280_pressure;Samples;Min_cycle;Max_cycle;Signal;HPM_P1;HPM_P2
2023/03/01 00:01:39;;;;;;;9.00;7.00;;;1.40;99.90;;;1.08;nan;101707.63;5051855;28;20670;-65
2023/03/01 00:04:06;;;;;;;11.07;6.93;;;1.40;99.90;;;1.00;nan;101709.44;5050774;28;20209;-65
2023/03/01 00:06:33;;;;;;;9.43;5.78;;;1.30;99.90;;;0.93;nan;101705.28;5050578;28;20221;-63
2023/03/01 00:09:00;;;;;;;7.60;6.75;;;1.20;99.90;;;0.92;nan;101697.56;5046210;28;20729;-66
2023/03/01 00:11:30;;;;;;;8.50;6.70;;;1.20;99.90;;;0.89;nan;101700.22;5051229;28;20197;-63
2023/03/01 00:14:00;;;;;;;9.95;6.75;;;1.10;99.90;;;0.85;nan;101704.56;5045114;28;20213;-63
2023/03/01 00:16:33;;;;;;;8.05;6.35;;;1.10;99.90;;;0.84;nan;101702.00;5042280;28;20224;-63
2023/03/01 00:19:00;;;;;;;9.98;6.85;;;1.10;99.90;;;0.81;nan;101700.31;5050668;28;20233;-64
2023/03/01 00:21:27;;;;;;;8.02;6.32;;;1.10;99.90;;;0.78;nan;101698.66;5049053;28;20669;-64
2023/03/01 00:23:55;;;;;;;8.93;7.05;;;1.10;99.90;;;0.66;nan;101705.69;5051711;28;20662;-66
2023/03/01 00:26:24;;;;;;;7.60;6.80;;;1.00;99.90;;;0.65;nan;101698.84;5045968;28;20306;-64
2023/03/01 00:28:51;;;;;;;8.50;6.47;;;0.90;99.90;;;0.61;nan;101705.75;5042669;28;20279;-64
2023/03/01 00:31:23;;;;;;;8.73;6.85;;;0.90;99.90;;;0.62;nan;101710.00;5048218;28;20197;-67
2023/03/01 00:33:57;;;;;;;11.13;6.63;;;0.90;99.90;;;0.61;nan;101700.63;5049961;28;20198;-65
2023/03/01 00:36:27;;;;;;;7.88;4.53;;;0.80;99.90;;;0.62;nan;101706.59;5050180;28;20205;-63
2023/03/01 00:38:55;;;;;;;8.35;6.65;;;0.90;99.90;;;0.66;nan;101703.13;5050304;28;20617;-64
2023/03/01 00:41:23;;;;;;;8.20;6.07;;;0.90;99.90;;;0.66;nan;101700.56;5052002;28;20205;-62
2023/03/01 00:43:50;;;;;;;8.52;6.63;;;0.90;99.90;;;0.65;nan;101707.41;5051544;28;20577;-64
2023/03/01 00:46:21;;;;;;;7.97;6.90;;;0.90;99.90;;;0.60;nan;101721.16;5049029;28;20654;-65
2023/03/01 00:48:49;;;;;;;8.80;6.50;;;0.90;99.90;;;0.58;nan;101716.06;5044734;28;20221;-64
2023/03/01 00:51:22;;;;;;;7.85;5.95;;;0.90;99.90;;;0.58;nan;101718.63;5050273;28;20209;-64
2023/03/01 00:53:56;;;;;;;9.10;7.35;;;0.90;99.90;;;0.53;nan;101719.59;5048677;28;20201;-65
2023/03/01 00:56:24;;;;;;;9.18;6.50;;;0.80;99.90;;;0.52;nan;101715.31;5050562;28;20212;-65
2023/03/01 00:58:51;;;;;;;10.05;6.05;;;0.80;99.90;;;0.52;nan;101707.59;5051034;28;20701;-64
2023/03/01 01:01:22;;;;;;;8.90;6.30;;;0.80;99.90;;;0.52;nan;101712.72;5049625;28;20751;-65
2023/03/01 01:03:53;;;;;;;9.43;5.95;;;0.70;99.90;;;0.51;nan;101699.03;5050494;28;20205;-65
2023/03/01 01:06:29;;;;;;;9.48;6.30;;;0.70;99.90;;;0.49;nan;101684.53;5049281;28;20233;-64
2023/03/01 01:08:57;;;;;;;9.77;6.80;;;0.70;99.90;;;0.52;nan;101697.31;5050073;28;20213;-64
2023/03/01 01:11:28;;;;;;;8.68;6.45;;;0.80;99.90;;;0.51;nan;101690.50;5047658;28;20197;-65
2023/03/01 01:13:56;;;;;;;9.95;6.93;;;0.70;99.90;;;0.47;nan;101681.97;5060061;28;20762;-66
2023/03/01 01:16:26;;;;;;;9.75;6.75;;;0.70;99.90;;;0.50;nan;101678.53;5049335;28;20209;-64
2023/03/01 01:18:54;;;;;;;9.60;5.90;;;0.70;99.90;;;0.48;nan;101670.00;5048432;28;20924;-64
2023/03/01 01:21:23;;;;;;;9.02;6.65;;;0.70;99.90;;;0.43;nan;101669.19;5048097;28;20665;-64
2023/03/01 01:23:51;;;;;;;8.60;6.90;;;0.70;99.90;;;0.41;nan;101666.66;5047125;28;20209;-63
2023/03/01 01:26:23;;;;;;;10.20;6.90;;;0.70;99.90;;;0.41;nan;101665.81;5049611;28;20213;-64
2023/03/01 01:28:51;;;;;;;14.85;7.43;;;0.70;99.90;;;0.43;nan;101669.19;5049335;28;20225;-66
2023/03/01 01:31:19;;;;;;;9.15;6.07;;;0.70;99.90;;;0.43;nan;101664.06;5050779;28;20764;-66
2023/03/01 01:33:46;;;;;;;8.73;5.80;;;0.70;99.90;;;0.44;nan;101664.06;5054614;28;20761;-64
2023/03/01 01:36:13;;;;;;;10.00;5.88;;;0.70;99.90;;;0.41;nan;101661.53;5054051;28;20665;-64
2023/03/01 01:38:42;;;;;;;11.48;6.93;;;0.60;99.90;;;0.42;nan;101647.84;5037918;28;20322;-64
2023/03/01 01:41:13;;;;;;;9.73;5.35;;;0.70;99.90;;;0.44;nan;101640.97;5055774;28;20266;-64
2023/03/01 01:43:48;;;;;;;8.45;6.25;;;0.70;99.90;;;0.46;nan;101635.78;5057028;28;20205;-64
2023/03/01 01:46:32;;;;;;;10.90;6.55;;;0.70;99.90;;;0.43;nan;101628.13;5056144;28;20220;-66
2023/03/01 01:49:18;;;;;;;9.27;6.93;;;0.70;99.90;;;0.43;nan;101633.25;5054298;28;20221;-65
2023/03/01 01:51:49;;;;;;;6.53;5.78;;;0.70;99.90;;;0.45;nan;101627.22;5055645;28;20205;-63
2023/03/01 01:54:24;;;;;;;11.20;6.93;;;0.80;99.90;;;0.44;nan;101629.84;5055705;28;20207;-64
2023/03/01 01:57:03;;;;;;;7.63;5.57;;;0.70;99.90;;;0.43;nan;101626.41;5056884;28;20270;-65
2023/03/01 01:59:31;;;;;;;7.30;5.25;;;0.70;99.90;;;0.43;nan;101628.13;5036060;28;20666;-65
2023/03/01 02:02:03;;;;;;;8.25;5.43;;;0.70;99.90;;;0.43;nan;101628.13;5053072;28;20212;-66
2023/03/01 02:04:32;;;;;;;7.70;4.72;;;0.70;99.90;;;0.41;nan;101628.16;5056957;28;20201;-65
2023/03/01 02:07:09;;;;;;;8.35;5.57;;;0.70;99.90;;;0.42;nan;101622.16;5056067;28;20258;-67
2023/03/01 02:09:36;;;;;;;10.50;6.00;;;0.70;99.90;;;0.45;nan;101616.09;5055990;28;20209;-64
2023/03/01 02:12:05;;;;;;;7.20;4.88;;;0.70;99.90;;;0.45;nan;101622.09;5056625;28;20197;-65
2023/03/01 02:14:31;;;;;;;10.35;6.72;;;0.70;99.90;;;0.43;nan;101615.28;5055256;28;20193;-65
2023/03/01 02:16:58;;;;;;;10.55;7.95;;;0.70;99.90;;;0.42;nan;101611.88;5055132;28;20640;-65
2023/03/01 02:20:07;;;;;;;11.00;7.13;;;0.70;99.90;;;0.37;nan;101615.38;5055099;28;20213;-64
2023/03/01 02:22:38;;;;;;;11.32;8.32;;;0.70;99.90;;;0.30;nan;101613.78;5056910;28;20201;-65
2023/03/01 02:25:22;;;;;;;11.35;6.95;;;0.60;99.90;;;0.27;nan;101609.53;5056166;28;20212;-64
2023/03/01 02:28:09;;;;;;;9.68;5.90;;;0.60;99.90;;;0.26;nan;101609.53;5055592;28;20724;-66
2023/03/01 02:30:36;;;;;;;10.50;6.05;;;0.50;99.90;;;0.22;nan;101606.19;5051383;28;20202;-65
2023/03/01 02:33:04;;;;;;;9.75;7.30;;;0.50;99.90;;;0.25;nan;101607.88;5052109;28;20201;-64
2023/03/01 02:35:37;;;;;;;9.05;6.35;;;0.50;99.90;;;0.25;nan;101600.16;5055388;28;20270;-61
2023/03/01 02:38:08;;;;;;;13.02;7.53;;;0.50;99.90;;;0.22;nan;101603.63;5055960;28;20603;-65
2023/03/01 02:40:38;;;;;;;12.43;8.10;;;0.50;99.90;;;0.19;nan;101598.53;5054858;28;20209;-67
2023/03/01 02:43:09;;;;;;;8.88;7.15;;;0.40;99.90;;;0.19;nan;101598.53;5052747;28;20257;-64
2023/03/01 02:45:36;;;;;;;13.10;7.88;;;0.40;99.90;;;0.19;nan;101590.00;5034785;28;20255;-65
2023/03/01 02:48:03;;;;;;;10.40;7.40;;;0.40;99.90;;;0.21;nan;101595.94;5053488;28;20501;-65
2023/03/01 02:50:30;;;;;;;8.50;5.50;;;0.50;99.90;;;0.18;nan;101595.97;5052329;28;20681;-65
2023/03/01 02:53:43;;;;;;;11.90;9.20;;;0.50;99.90;;;0.16;nan;101588.31;5052738;28;20217;-64
2023/03/01 02:56:12;;;;;;;13.55;7.78;;;0.50;99.90;;;0.17;nan;101584.03;5001060;28;20669;-63
2023/03/01 02:58:45;;;;;;;13.35;7.78;;;0.40;99.90;;;0.15;nan;101588.34;5051662;28;20601;-66
2023/03/01 03:01:14;;;;;;;13.80;9.25;;;0.40;99.90;;;0.13;nan;101579.81;5051855;28;20205;-65
2023/03/01 03:03:42;;;;;;;9.32;6.07;;;0.40;99.90;;;0.09;nan;101573.84;5037859;28;20206;-64
2023/03/01 03:06:09;;;;;;;11.25;9.35;;;0.40;99.90;;;0.04;nan;101569.69;5040599;28;20282;-64
2023/03/01 03:08:36;;;;;;;11.35;8.20;;;0.40;99.90;;;0.04;nan;101559.41;5048965;28;20214;-65
2023/03/01 03:11:04;;;;;;;13.20;7.40;;;0.30;99.90;;;0.06;nan;101555.97;5053056;28;20668;-64
2023/03/01 03:13:32;;;;;;;12.75;7.78;;;0.30;99.90;;;0.05;nan;101561.09;5051232;28;20201;-64
2023/03/01 03:15:59;;;;;;;11.90;8.05;;;0.30;99.90;;;0.06;nan;101558.53;5047073;28;20267;-65
2023/03/01 03:18:25;;;;;;;13.98;8.15;;;0.30;99.90;;;0.02;nan;101553.44;5052223;28;20233;-63
2023/03/01 03:20:53;;;;;;;10.80;8.23;;;0.30;99.90;;;0.02;nan;101551.75;5051595;28;20727;-64
2023/03/01 03:23:21;;;;;;;14.10;8.40;;;0.30;99.90;;;0.03;nan;101550.00;5049802;28;20266;-65
2023/03/01 03:25:51;;;;;;;11.32;8.85;;;0.30;99.90;;;-0.01;nan;101544.06;5051499;28;20225;-65
2023/03/01 03:28:19;;;;;;;11.75;8.50;;;0.20;99.90;;;-0.03;nan;101538.13;5050294;28;20597;-66
2023/03/01 03:30:46;;;;;;;13.13;9.15;;;0.20;99.90;;;-0.04;nan;101539.84;5051315;28;20205;-64
2023/03/01 03:33:13;;;;;;;14.30;9.45;;;0.20;99.90;;;-0.04;nan;101544.97;5052028;28;20204;-64
2023/03/01 03:35:46;;;;;;;12.73;8.48;;;0.20;99.90;;;-0.04;nan;101531.28;5050338;28;20217;-66
2023/03/01 03:38:16;;;;;;;12.70;7.45;;;0.20;99.90;;;-0.01;nan;101524.41;5043768;28;20225;-69
2023/03/01 03:41:03;;;;;;;12.80;7.68;;;0.20;99.90;;;0.00;nan;101528.66;5051428;28;20221;-64
2023/03/01 03:43:33;;;;;;;5.63;3.65;;;0.20;99.90;;;0.03;nan;101526.91;5051310;28;20201;-63
2023/03/01 03:46:00;;;;;;;11.50;6.97;;;0.20;99.90;;;0.08;nan;101533.69;5052485;28;20236;-66
2023/03/01 03:48:27;;;;;;;13.63;8.15;;;0.30;99.90;;;0.09;nan;101529.38;5046776;28;20618;-64
2023/03/01 03:50:56;;;;;;;10.13;7.55;;;0.30;99.90;;;0.07;nan;101526.84;5050891;28;20251;-64
2023/03/01 03:53:26;;;;;;;10.73;6.78;;;0.40;99.90;;;0.08;nan;101522.56;5040632;28;20198;-66
2023/03/01 03:55:54;;;;;;;14.65;7.60;;;0.30;99.90;;;0.06;nan;101520.03;5051108;28;20690;-65
2023/03/01 03:58:23;;;;;;;14.43;6.68;;;0.30;99.90;;;0.07;nan;101526.84;5050742;28;20229;-63
2023/03/01 04:00:55;;;;;;;10.07;4.95;;;0.30;99.90;;;0.10;nan;101515.69;5051846;28;20208;-64
2023/03/01 04:03:25;;;;;;;12.63;8.32;;;0.30;99.90;;;0.09;nan;101524.25;5051789;28;20671;-64
2023/03/01 04:05:53;;;;;;;12.95;7.50;;;0.40;99.90;;;0.06;nan;101519.19;5032206;28;20708;-64
2023/03/01 04:08:23;;;;;;;11.35;7.07;;;0.30;99.90;;;0.03;nan;101512.38;5052164;28;20217;-64
2023/03/01 04:10:56;;;;;;;13.32;6.47;;;0.30;99.90;;;0.04;nan;101526.91;5052558;28;20263;-64
2023/03/01 04:13:25;;;;;;;13.07;8.75;;;0.30;99.90;;;0.04;nan;101524.34;5050748;28;20634;-67
2023/03/01 04:15:54;;;;;;;11.40;7.78;;;0.30;99.90;;;0.00;nan;101513.25;5052145;28;20204;-65
2023/03/01 04:18:24;;;;;;;12.80;8.27;;;0.30;99.90;;;-0.01;nan;101521.00;5051000;28;20213;-64
2023/03/01 04:20:55;;;;;;;13.15;8.48;;;0.30;99.90;;;-0.01;nan;101516.72;5034316;28;20198;-66
2023/03/01 04:23:22;;;;;;;11.10;7.70;;;0.30;99.90;;;-0.03;nan;101510.75;5048668;28;20205;-65
2023/03/01 04:25:56;;;;;;;12.85;7.35;;;0.30;99.90;;;0.00;nan;101515.81;5051928;28;20207;-65
2023/03/01 04:28:44;;;;;;;11.68;7.65;;;0.30;99.90;;;-0.02;nan;101516.72;5050185;28;20759;-65
2023/03/01 04:31:17;;;;;;;12.55;8.02;;;0.20;99.90;;;-0.03;nan;101522.72;5049644;28;20202;-67
2023/03/01 04:33:51;;;;;;;13.18;8.02;;;0.30;99.90;;;-0.06;nan;101517.63;5046651;28;20205;-66
2023/03/01 04:36:21;;;;;;;13.45;8.75;;;0.20;99.90;;;-0.09;nan;101500.59;5014615;28;20215;-67
2023/03/01 04:38:48;;;;;;;12.60;8.35;;;0.20;99.90;;;-0.09;nan;101508.28;5075234;23;20601;-68
2023/03/01 04:41:19;;;;;;;12.25;7.47;;;0.20;99.90;;;-0.10;nan;101515.97;5053485;28;20243;-64
2023/03/01 04:43:46;;;;;;;12.18;8.00;;;0.20;99.90;;;-0.10;nan;101523.69;5052236;28;20196;-63
2023/03/01 04:46:17;;;;;;;13.90;8.73;;;0.20;99.90;;;-0.09;nan;101520.25;5069720;28;20231;-65
2023/03/01 04:48:46;;;;;;;11.10;7.70;;;0.20;99.90;;;-0.08;nan;101519.38;5052156;28;20723;-65
2023/03/01 04:51:13;;;;;;;14.20;7.38;;;0.20;99.90;;;-0.06;nan;101512.50;5046746;28;20227;-65
2023/03/01 04:53:42;;;;;;;11.80;6.80;;;0.20;99.90;;;-0.06;nan;101515.06;5031301;28;20210;-65
2023/03/01 04:56:10;;;;;;;8.23;4.72;;;0.20;99.90;;;-0.03;nan;101515.88;5031130;28;20612;-64
2023/03/01 04:58:37;;;;;;;12.25;7.40;;;0.20;99.90;;;-0.04;nan;101514.19;5041149;28;20229;-65
2023/03/01 05:01:16;;;;;;;10.07;6.30;;;0.30;99.90;;;-0.01;nan;101518.41;5031106;28;20625;-65
2023/03/01 05:03:51;;;;;;;11.27;6.63;;;0.20;99.90;;;0.03;nan;101520.06;5048896;28;20281;-64
2023/03/01 05:06:20;;;;;;;13.45;7.25;;;0.30;99.90;;;0.08;nan;101510.59;5069168;28;20273;-65
2023/03/01 05:08:47;;;;;;;12.63;7.65;;;0.40;99.90;;;0.07;nan;101508.03;5012710;28;20266;-65
2023/03/01 05:11:14;;;;;;;9.93;6.55;;;0.30;99.90;;;0.08;nan;101505.47;5029661;28;20198;-65
2023/03/01 05:13:41;;;;;;;16.13;7.05;;;0.30;99.90;;;0.10;nan;101508.84;5019179;28;20681;-65
2023/03/01 05:16:10;;;;;;;14.02;7.95;;;0.40;99.90;;;0.11;nan;101502.00;5018615;28;20282;-65
2023/03/01 05:18:39;;;;;;;11.07;5.72;;;0.40;99.90;;;0.15;nan;101509.59;5038885;28;20212;-65
2023/03/01 05:21:10;;;;;;;9.48;6.07;;;0.40;99.90;;;0.18;nan;101511.28;5036535;28;20206;-65
2023/03/01 05:23:38;;;;;;;12.73;8.30;;;0.50;99.90;;;0.16;nan;101510.47;5017231;28;20213;-66
2023/03/01 05:26:06;;;;;;;11.88;5.88;;;0.40;99.90;;;0.20;nan;101510.41;5033204;28;20204;-66
2023/03/01 05:28:42;;;;;;;10.75;6.70;;;0.50;99.90;;;0.20;nan;101514.69;5041561;28;20224;-65
2023/03/01 05:31:11;;;;;;;9.07;5.03;;;0.50;99.90;;;0.18;nan;101509.56;5051010;28;20842;-65
2023/03/01 05:33:40;;;;;;;9.80;5.38;;;0.40;99.90;;;0.23;nan;101507.78;5049275;28;20586;-64
2023/03/01 05:36:12;;;;;;;11.25;6.03;;;0.50;99.90;;;0.25;nan;101506.06;5054455;28;20204;-65
2023/03/01 05:38:39;;;;;;;10.90;6.65;;;0.50;99.90;;;0.27;nan;101508.59;5013682;28;20230;-65
2023/03/01 05:41:15;;;;;;;11.18;6.43;;;0.50;99.90;;;0.30;nan;101508.53;5030669;28;20217;-65
2023/03/01 05:43:44;;;;;;;11.50;6.80;;;0.60;99.90;;;0.32;nan;101509.38;5027532;28;20190;-65
2023/03/01 05:46:13;;;;;;;11.70;6.38;;;0.60;99.90;;;0.35;nan;101514.44;5049494;28;20205;-67
2023/03/01 05:48:40;;;;;;;14.32;7.38;;;0.60;99.90;;;0.40;nan;101515.22;5030684;28;20218;-65
2023/03/01 05:51:07;;;;;;;13.65;7.43;;;0.60;99.90;;;0.38;nan;101506.69;5040374;28;20200;-67
2023/03/01 05:53:34;;;;;;;8.73;4.93;;;0.60;99.90;;;0.40;nan;101505.81;5042194;28;20198;-65
2023/03/01 05:56:06;;;;;;;13.18;6.10;;;0.60;99.90;;;0.43;nan;101507.44;5018764;28;20190;-67
2023/03/01 05:58:33;;;;;;;10.45;5.00;;;0.70;99.90;;;0.47;nan;101511.69;5038134;28;20217;-65
2023/03/01 06:01:00;;;;;;;11.40;5.95;;;0.70;99.90;;;0.48;nan;101509.09;5043036;28;20205;-65
2023/03/01 06:03:27;;;;;;;11.93;6.32;;;0.70;99.90;;;0.50;nan;101511.63;5013788;28;20198;-65
2023/03/01 06:05:57;;;;;;;13.63;7.10;;;0.80;99.90;;;0.49;nan;101497.94;5029980;28;20671;-65
2023/03/01 06:08:26;;;;;;;12.80;7.65;;;0.80;99.90;;;0.50;nan;101498.78;5030005;28;20292;-65
2023/03/01 06:10:54;;;;;;;12.90;6.75;;;0.70;99.90;;;0.53;nan;101501.31;5027027;28;20229;-64
2023/03/01 06:13:20;;;;;;;11.45;6.65;;;0.80;99.90;;;0.56;nan;101498.66;5038921;28;20214;-67
2023/03/01 06:15:47;;;;;;;13.13;5.97;;;0.80;99.90;;;0.55;nan;101500.41;5049975;28;20198;-65
2023/03/01 06:18:14;;;;;;;11.27;5.65;;;0.80;99.90;;;0.59;nan;101508.91;5030474;28;20701;-66
2023/03/01 06:20:41;;;;;;;11.80;6.05;;;0.80;99.90;;;0.64;nan;101505.38;4999142;28;20214;-65
2023/03/01 06:23:09;;;;;;;8.23;5.22;;;0.90;99.90;;;0.74;nan;101506.06;5043428;28;20239;-65
2023/03/01 06:25:37;;;;;;;9.57;5.50;;;1.00;99.90;;;0.84;nan;101510.16;5052311;28;20209;-64
2023/03/01 06:28:04;;;;;;;12.70;7.45;;;1.10;99.90;;;0.95;nan;101510.81;5053183;28;20455;-64
2023/03/01 06:30:31;;;;;;;2.40;2.15;;;1.20;99.90;;;1.09;nan;101507.97;5072665;28;20590;-64
2023/03/01 06:33:01;;;;;;;13.10;7.07;;;1.30;99.90;;;1.22;nan;101500.00;5042890;28;20686;-64
2023/03/01 06:35:29;;;;;;;9.40;4.97;;;1.50;99.90;;;1.39;nan;101504.78;5040900;28;20259;-65
2023/03/01 06:37:58;;;;;;;7.30;5.32;;;1.60;99.90;;;1.58;nan;101514.66;5065830;28;20236;-67
2023/03/01 06:40:26;;;;;;;10.88;6.97;;;1.80;99.90;;;1.77;nan;101509.13;5052101;28;20586;-65
2023/03/01 06:42:52;;;;;;;9.82;6.97;;;2.00;99.90;;;2.00;nan;101501.75;5034544;28;20205;-65
2023/03/01 06:45:21;;;;;;;14.73;8.15;;;2.20;99.90;;;2.30;nan;101498.41;5063415;28;20208;-65
2023/03/01 06:47:48;;;;;;;4.32;2.80;;;2.50;99.90;;;2.70;nan;101509.44;5051245;28;20236;-65
2023/03/01 06:50:16;;;;;;;14.07;8.52;;;2.90;99.90;;;3.13;nan;101512.56;5056544;28;20208;-67
2023/03/01 06:52:44;;;;;;;18.40;6.97;;;3.30;99.90;;;3.61;nan;101507.75;5031212;28;20201;-66
2023/03/01 06:55:12;;;;;;;14.68;7.05;;;3.70;99.90;;;4.15;nan;101505.22;5062324;28;20212;-66
2023/03/01 06:57:39;;;;;;;12.18;8.20;;;4.30;99.90;;;4.42;nan;101506.06;5054233;28;20229;-67
2023/03/01 07:00:08;;;;;;;9.85;5.32;;;4.60;99.90;;;4.73;nan;101502.41;5036056;28;20667;-65
2023/03/01 07:02:35;;;;;;;13.45;7.80;;;4.90;99.90;;;5.15;nan;101499.22;5032904;28;20202;-65
2023/03/01 07:05:02;;;;;;;12.77;8.52;;;5.30;99.90;;;5.54;nan;101502.09;5015482;28;20584;-66
2023/03/01 07:07:28;;;;;;;16.63;8.75;;;5.70;99.90;;;5.91;nan;101498.06;5034563;28;20213;-65
2023/03/01 07:09:55;;;;;;;13.18;8.68;;;6.10;99.90;;;6.06;nan;101494.88;5039825;28;20212;-66
2023/03/01 07:12:22;;;;;;;10.90;7.43;;;6.30;99.90;;;6.07;nan;101504.31;5024606;28;20213;-65
2023/03/01 07:14:49;;;;;;;12.95;8.00;;;6.30;99.90;;;6.39;nan;101499.63;5053250;28;20988;-66
2023/03/01 07:17:16;;;;;;;14.40;8.93;;;6.60;99.90;;;6.90;nan;101493.06;5044019;28;20666;-65
2023/03/01 07:19:44;;;;;;;9.03;5.53;;;7.10;99.40;;;7.28;nan;101494.00;5023549;28;21277;-66
2023/03/01 07:22:11;;;;;;;12.90;7.87;;;7.50;97.80;;;7.66;nan;101495.69;5039753;28;20651;-67
2023/03/01 07:24:38;;;;;;;16.23;8.33;;;7.90;96.50;;;7.91;nan;101494.53;5023939;28;20658;-65
2023/03/01 07:27:05;;;;;;;4.13;3.00;;;8.30;94.90;;;8.18;nan;101485.41;5049657;28;21259;-67
2023/03/01 07:29:32;;;;;;;14.53;6.53;;;8.60;93.80;;;8.38;nan;101486.19;5056897;28;20662;-66
2023/03/01 07:31:59;;;;;;;16.23;10.30;;;8.80;93.00;;;8.69;nan;101488.06;5060152;28;21076;-66
2023/03/01 07:34:26;;;;;;;16.07;9.90;;;9.10;91.80;;;9.06;nan;101487.88;5051600;28;20668;-66
2023/03/01 07:36:53;;;;;;;7.30;4.30;;;9.60;90.50;;;9.42;nan;101498.13;5049975;28;21211;-65
2023/03/01 07:39:22;;;;;;;13.13;7.83;;;9.90;87.60;;;9.76;nan;101468.47;5066315;28;20665;-66
2023/03/01 07:41:50;;;;;;;12.60;7.00;;;10.30;85.30;;;10.22;nan;101483.25;5038111;28;20636;-66
2023/03/01 07:44:17;;;;;;;13.27;9.83;;;10.80;82.20;;;10.35;nan;101481.59;5048185;28;20644;-66
2023/03/01 07:46:44;;;;;;;13.77;7.07;;;11.10;79.20;;;10.84;nan;101480.41;5047170;28;21214;-67
2023/03/01 07:49:11;;;;;;;11.83;7.33;;;11.50;78.30;;;11.21;nan;101470.34;5068246;28;20708;-66
2023/03/01 07:51:38;;;;;;;14.90;10.40;;;12.00;75.00;;;11.63;nan;101476.38;5048154;28;20633;-66
2023/03/01 07:54:05;;;;;;;13.10;7.53;;;12.40;73.30;;;12.14;nan;101476.63;5051766;28;20646;-67
2023/03/01 07:56:32;;;;;;;9.73;6.80;;;12.80;71.80;;;12.41;nan;101485.31;5039849;28;20704;-67
2023/03/01 07:59:00;;;;;;;15.40;9.50;;;13.30;69.10;;;12.85;nan;101487.56;5048428;28;21254;-67
2023/03/01 08:01:27;;;;;;;14.57;10.00;;;13.70;67.30;;;12.96;nan;101470.16;5020419;28;21022;-67
2023/03/01 08:03:54;;;;;;;15.17;11.60;;;14.00;65.80;;;13.37;nan;101477.81;5038513;28;20636;-65
2023/03/01 08:06:21;;;;;;;19.17;11.80;;;14.20;64.50;;;14.12;nan;101476.72;5030515;28;20636;-65
2023/03/01 08:08:48;;;;;;;15.50;9.53;;;15.00;62.40;;;15.02;nan;101476.88;5031991;28;20669;-65
2023/03/01 08:11:15;;;;;;;17.40;12.13;;;15.80;60.50;;;15.61;nan;101482.75;5038862;28;20636;-66
2023/03/01 08:13:43;;;;;;;16.77;10.27;;;16.60;58.20;;;15.77;nan;101467.41;5042029;28;20686;-68
2023/03/01 08:16:14;;;;;;;18.80;11.43;;;17.00;56.00;;;15.91;nan;101463.66;5053945;28;20658;-67
2023/03/01 08:18:42;;;;;;;16.17;10.50;;;17.00;56.00;;;16.37;nan;101448.41;5042689;28;20652;-66
2023/03/01 08:21:13;;;;;;;18.87;12.07;;;17.40;54.80;;;16.59;nan;101448.28;5015945;28;20641;-65
2023/03/01 08:23:41;;;;;;;15.00;9.77;;;17.80;53.90;;;17.03;nan;101457.72;5015122;28;20727;-66
2023/03/01 08:26:18;;;;;;;15.70;11.00;;;18.20;52.70;;;16.92;nan;101447.25;5035672;28;20644;-67
2023/03/01 08:28:46;;;;;;;16.00;9.87;;;18.10;52.40;;;17.02;nan;101451.59;5052919;28;20666;-66
2023/03/01 08:31:35;;;;;;;17.17;13.37;;;18.30;51.30;;;16.93;nan;101457.66;5065851;28;20710;-64
2023/03/01 08:34:06;;;;;;;12.90;9.20;;;18.10;51.40;;;17.23;nan;101448.91;5052082;28;20627;-64
2023/03/01 08:36:37;;;;;;;17.03;12.50;;;18.40;50.50;;;17.16;nan;101452.22;5017455;28;20659;-67
2023/03/01 08:39:06;;;;;;;14.33;11.20;;;18.40;49.70;;;17.25;nan;101456.69;5032101;28;20665;-64
2023/03/01 08:41:33;;;;;;;17.10;13.10;;;18.40;49.40;;;17.40;nan;101448.25;5048051;28;20763;-65
2023/03/01 08:44:00;;;;;;;16.47;12.50;;;18.50;49.50;;;17.62;nan;101442.81;5030390;28;20628;-64
2023/03/01 08:46:38;;;;;;;18.67;11.17;;;18.70;49.20;;;18.48;nan;101448.13;5012925;28;20659;-68
2023/03/01 08:49:07;;;;;;;16.63;13.33;;;19.40;48.40;;;17.97;nan;101444.94;5038400;28;20675;-66
2023/03/01 08:51:36;;;;;;;15.87;12.60;;;19.20;47.80;;;17.98;nan;101435.19;5046712;28;21179;-64
2023/03/01 08:54:14;;;;;;;18.80;12.37;;;18.90;48.50;;;18.24;nan;101445.09;5036071;28;21068;-66
2023/03/01 08:56:42;;;;;;;15.10;13.50;;;19.20;48.00;;;18.49;nan;101433.97;5039369;28;20635;-67
2023/03/01 08:59:11;;;;;;;19.00;12.47;;;19.60;47.30;;;18.64;nan;101436.16;5039854;28;20658;-65
2023/03/01 09:01:39;;;;;;;16.23;14.27;;;19.70;47.00;;;18.50;nan;101437.44;5018671;28;20640;-65
2023/03/01 09:04:06;;;;;;;17.30;11.90;;;19.60;46.90;;;18.40;nan;101429.47;5026383;28;20642;-65
2023/03/01 09:06:34;;;;;;;18.83;12.60;;;19.60;46.60;;;18.89;nan;101430.25;5035532;28;20712;-66
2023/03/01 09:09:03;;;;;;;15.87;11.00;;;19.90;46.80;;;19.14;nan;101427.78;5031650;28;20726;-65
2023/03/01 09:11:30;;;;;;;15.93;13.10;;;20.10;46.10;;;20.16;nan;101417.78;5030550;28;20777;-65
2023/03/01 09:13:57;;;;;;;15.73;11.00;;;21.10;45.20;;;20.58;nan;101418.78;5022392;28;21078;-65
2023/03/01 09:16:25;;;;;;;20.70;14.07;;;21.90;44.10;;;20.54;nan;101423.59;5040027;28;20635;-65
2023/03/01 09:18:54;;;;;;;17.97;12.90;;;21.70;44.10;;;20.99;nan;101426.00;5030563;28;20653;-67
2023/03/01 09:21:23;;;;;;;19.40;13.90;;;22.10;43.60;;;21.40;nan;101417.25;5032692;28;20640;-64
2023/03/01 09:24:15;;;;;;;19.57;12.60;;;22.50;43.30;;;22.01;nan;101410.75;5040861;28;21173;-65
2023/03/01 09:26:46;;;;;;;17.90;13.43;;;23.10;42.50;;;21.22;nan;101402.41;5041430;28;20628;-66
2023/03/01 09:29:14;;;;;;;18.07;12.90;;;22.30;42.90;;;20.60;nan;101398.25;5037393;28;21313;-66
2023/03/01 09:31:42;;;;;;;19.03;15.10;;;22.00;42.80;;;20.22;nan;101401.31;5041375;28;20626;-66
2023/03/01 09:34:09;;;;;;;17.73;13.07;;;21.70;42.70;;;20.41;nan;101395.81;5012464;28;21009;-65
2023/03/01 09:36:36;;;;;;;19.10;14.10;;;21.80;42.70;;;20.49;nan;101406.47;5029974;28;20628;-68
2023/03/01 09:39:05;;;;;;;18.90;14.53;;;21.70;42.90;;;21.03;nan;101402.66;5050295;28;21262;-63
2023/03/01 09:41:59;;;;;;;17.83;14.80;;;22.20;42.40;;;21.62;nan;101392.75;5050587;28;20635;-66
2023/03/01 09:44:53;;;;;;;18.23;14.40;;;22.70;41.90;;;21.02;nan;101385.88;5022013;28;20692;-66
2023/03/01 09:47:28;;;;;;;16.67;13.27;;;22.20;42.20;;;21.09;nan;101383.44;5031255;28;20700;-64
2023/03/01 09:50:18;;;;;;;17.20;11.93;;;22.30;42.00;;;21.32;nan;101395.97;5041128;28;20661;-65
2023/03/01 09:53:00;;;;;;;18.50;10.60;;;22.40;42.10;;;22.01;nan;101400.13;5035636;28;20643;-65
2023/03/01 09:55:51;;;;;;;15.93;14.07;;;23.00;41.80;;;21.73;nan;101390.75;5018122;28;20986;-65
2023/03/01 09:58:51;;;;;;;17.27;14.40;;;23.10;41.30;;;21.38;nan;101398.00;5042377;28;21052;-64
2023/03/01 10:01:46;;;;;;;18.87;13.80;;;22.90;41.10;;;21.74;nan;101387.97;5050348;28;20806;-65
2023/03/01 10:04:47;;;;;;;17.60;13.30;;;23.10;41.10;;;22.19;nan;101403.47;5022759;28;20636;-65
2023/03/01 10:07:38;;;;;;;15.40;10.57;;;23.30;41.00;;;22.37;nan;101396.13;5026251;28;20632;-65
2023/03/01 10:10:08;;;;;;;24.30;14.37;;;23.50;40.60;;;22.22;nan;101401.28;5037930;28;20636;-66
2023/03/01 10:12:40;;;;;;;8.17;4.43;;;23.50;39.90;;;20.12;nan;101386.28;5016528;28;20613;-65
2023/03/01 10:15:15;;;;;;;21.23;14.60;;;22.50;40.10;;;20.76;nan;101388.56;5015855;28;20612;-66
2023/03/01 10:18:02;;;;;;;20.17;11.80;;;21.80;40.80;;;21.51;nan;101370.97;5024918;28;20762;-64
2023/03/01 10:20:53;;;;;;;18.50;15.30;;;22.50;40.20;;;23.24;nan;101379.25;5016444;28;20635;-65
2023/03/01 10:23:23;;;;;;;16.90;13.90;;;24.00;39.40;;;23.91;nan;101366.00;5038121;28;20642;-65
2023/03/01 10:26:08;;;;;;;18.20;13.63;;;25.00;38.50;;;24.66;nan;101374.81;5073576;28;20648;-66
2023/03/01 10:28:57;;;;;;;17.87;13.90;;;25.60;38.10;;;23.25;nan;101354.28;5022347;28;20667;-65
2023/03/01 10:31:36;;;;;;;19.73;16.07;;;24.30;38.20;;;23.95;nan;101365.66;5053451;28;20676;-64
2023/03/01 10:34:34;;;;;;;16.67;12.27;;;24.70;38.30;;;23.24;nan;101360.59;5015979;28;20635;-65
2023/03/01 10:37:20;;;;;;;16.70;13.47;;;24.40;38.00;;;23.32;nan;101355.25;5016427;28;20640;-64
2023/03/01 10:40:08;;;;;;;19.93;12.73;;;24.30;38.10;;;21.45;nan;101348.56;5064507;22;20794;-65
2023/03/01 10:42:47;;;;;;;18.67;15.00;;;22.80;39.30;;;21.91;nan;101351.63;5031726;28;20628;-65
2023/03/01 10:45:30;;;;;;;18.67;12.63;;;22.70;39.60;;;21.93;nan;101339.00;5026717;28;21192;-65